Connexion S'enregistrer

Connexion à votre compte

Identifiant
Mot de passe
Maintenir la connexion active sur ce site

Créer un compte

Pour valider ce formulaire, vous devez remplir tous les champs.
Nom
Identifiant
Mot de passe
Répétez le mot de passe
Adresse e-mail
Répétez l'adresse e-mail

Veuillez saisir l'adresse e-mail associée à votre compte d'utilisateur. Un code de vérification vous sera adressé. Lorsque vous le recevrez, vous pourrez choisir un nouveau mot de passe

Nous contacter

 Téléphone : +33 (0)4 79 54 41 81

Coordonnées détaillées et accès : cliquez ici

 
LFLB °C
    Ferienhaus Ostsee
[source: ADDS]
METAR
LFLB 201900Z AUTO 00000KT CAVOK 13/09 Q1014 BECMG 20010KT =
TAF LFLB 201400Z 2015/2115 20010KT CAVOK PROB40 TEMPO 2108/2112 02005KT
TAF
TAF LFLB 201400Z 2015/2115 20010KT CAVOK PROB40 TEMPO 2108/2112 02005KT =
SR / SS: 06:00 / 16:42 UTC (Lever/Coucher du soleil le 2020-10-20)
JSN Boot template designed by JoomlaShine.com